createdAt,value
2018-07-28T00:00:16.721Z,11.40
2018-07-28T00:02:45.294Z,12.00
2018-07-28T00:05:13.926Z,11.70
2018-07-28T00:07:42.600Z,9.10
2018-07-28T00:10:13.113Z,9.00
2018-07-28T00:12:42.957Z,10.50
2018-07-28T00:15:12.880Z,8.97
2018-07-28T00:17:42.742Z,9.90
2018-07-28T00:20:12.905Z,10.73
2018-07-28T00:22:41.649Z,9.27
2018-07-28T00:25:11.617Z,10.30
2018-07-28T00:27:40.773Z,11.67
2018-07-28T00:30:10.675Z,15.43
2018-07-28T00:32:39.173Z,8.97
2018-07-28T00:35:07.877Z,10.23
2018-07-28T00:37:37.149Z,9.63
2018-07-28T00:40:06.297Z,8.40
2018-07-28T00:42:35.455Z,10.10
2018-07-28T00:45:04.480Z,10.17
2018-07-28T00:47:33.425Z,11.97
2018-07-28T00:50:02.593Z,9.30
2018-07-28T00:55:27.918Z,13.87
2018-07-28T00:57:56.861Z,9.83
2018-07-28T01:00:26.314Z,10.33
2018-07-28T01:02:55.365Z,10.67
2018-07-28T01:05:24.257Z,9.73
2018-07-28T01:07:53.234Z,12.70
2018-07-28T01:10:21.825Z,10.33
2018-07-28T01:12:50.305Z,9.80
2018-07-28T01:15:19.195Z,11.03
2018-07-28T01:17:47.974Z,11.03
2018-07-28T01:20:16.781Z,11.73
2018-07-28T01:22:45.565Z,13.33
2018-07-28T01:25:14.306Z,12.37
2018-07-28T01:27:43.036Z,12.17
2018-07-28T01:30:18.997Z,9.70
2018-07-28T01:32:47.787Z,10.93
2018-07-28T01:35:16.376Z,9.10
2018-07-28T01:37:45.114Z,11.73
2018-07-28T01:40:13.948Z,12.43
2018-07-28T01:42:42.784Z,10.60
2018-07-28T01:45:11.466Z,11.10
2018-07-28T01:47:40.347Z,9.47
2018-07-28T01:50:09.768Z,12.50
2018-07-28T01:52:38.761Z,10.73
2018-07-28T01:55:07.666Z,8.77
2018-07-28T01:57:36.601Z,15.00
2018-07-28T02:00:06.113Z,10.23
2018-07-28T02:02:34.890Z,12.30
2018-07-28T02:05:03.816Z,9.93
2018-07-28T02:07:32.607Z,10.67
2018-07-28T02:10:01.453Z,10.80
2018-07-28T02:12:30.225Z,11.30
2018-07-28T02:14:59.020Z,10.93
2018-07-28T02:17:27.861Z,9.57
2018-07-28T02:19:56.733Z,12.53
2018-07-28T02:22:25.621Z,11.17
2018-07-28T02:24:54.416Z,9.07
2018-07-28T02:27:23.309Z,8.97
2018-07-28T02:29:52.093Z,10.47
2018-07-28T02:32:21.006Z,12.27
2018-07-28T02:34:49.981Z,13.57
2018-07-28T02:37:18.700Z,10.40
2018-07-28T02:39:47.450Z,10.83
2018-07-28T02:42:16.230Z,9.80
2018-07-28T02:44:45.469Z,14.03
2018-07-28T02:47:14.285Z,12.53
2018-07-28T02:49:43.115Z,10.17
2018-07-28T02:52:11.885Z,11.00
2018-07-28T02:54:40.727Z,13.67
2018-07-28T02:57:09.706Z,14.40
2018-07-28T02:59:39.052Z,11.53
2018-07-28T03:02:08.014Z,10.13
2018-07-28T03:04:36.807Z,11.83
2018-07-28T03:07:06.563Z,13.47
2018-07-28T03:09:35.605Z,11.80
2018-07-28T03:12:04.469Z,11.67
2018-07-28T03:14:33.341Z,14.47
2018-07-28T03:17:01.973Z,10.77
2018-07-28T03:19:30.783Z,9.20
2018-07-28T03:21:59.578Z,12.97
2018-07-28T03:24:28.521Z,11.90
2018-07-28T03:26:57.385Z,11.83
2018-07-28T03:29:26.127Z,13.87
2018-07-28T03:31:54.937Z,13.17
2018-07-28T03:34:23.745Z,13.43
2018-07-28T03:36:52.614Z,12.80
2018-07-28T03:39:21.425Z,12.67
2018-07-28T03:41:50.306Z,11.00
2018-07-28T03:44:19.128Z,11.80
2018-07-28T03:46:47.718Z,17.03
2018-07-28T03:49:16.492Z,12.13
2018-07-28T03:51:45.345Z,10.50
2018-07-28T03:54:14.149Z,11.27
2018-07-28T03:56:42.926Z,11.80
2018-07-28T03:59:11.790Z,14.53
2018-07-28T04:01:40.589Z,14.77
2018-07-28T04:04:09.518Z,13.17
2018-07-28T04:06:38.309Z,13.60
2018-07-28T04:09:07.332Z,11.90
2018-07-28T04:11:36.081Z,12.37
2018-07-28T04:14:05.192Z,12.27
2018-07-28T04:16:34.042Z,11.50
2018-07-28T04:19:02.857Z,16.37
2018-07-28T04:21:31.641Z,15.73
2018-07-28T04:24:00.453Z,10.37
2018-07-28T04:26:29.397Z,11.97
2018-07-28T04:28:58.305Z,11.00
2018-07-28T04:31:27.174Z,11.23
2018-07-28T04:33:56.133Z,10.60
2018-07-28T04:36:24.973Z,13.33
2018-07-28T04:38:53.957Z,10.77
2018-07-28T04:41:22.771Z,11.97
2018-07-28T04:43:51.839Z,14.77
2018-07-28T04:46:20.632Z,15.37
2018-07-28T04:48:49.561Z,10.60
2018-07-28T04:51:18.368Z,11.73
2018-07-28T04:53:47.314Z,11.57
2018-07-28T04:56:16.225Z,15.97
2018-07-28T04:58:45.066Z,9.37
2018-07-28T05:01:13.962Z,15.03
2018-07-28T05:03:42.777Z,10.23
2018-07-28T05:06:11.641Z,11.90
2018-07-28T05:08:40.585Z,12.30
2018-07-28T05:11:09.383Z,12.37
2018-07-28T05:13:38.036Z,13.33
2018-07-28T05:16:06.768Z,12.13
2018-07-28T05:18:35.745Z,14.37
2018-07-28T05:21:04.539Z,13.10
2018-07-28T05:23:33.186Z,12.93
2018-07-28T05:26:01.893Z,12.33
2018-07-28T05:28:30.697Z,12.87
2018-07-28T05:30:59.552Z,15.97
2018-07-28T05:33:28.354Z,13.60
2018-07-28T05:35:57.134Z,10.10
2018-07-28T05:38:26.154Z,11.30
2018-07-28T05:40:54.936Z,13.67
2018-07-28T05:43:23.841Z,13.37
2018-07-28T05:45:52.602Z,11.33
2018-07-28T05:48:21.414Z,15.53
2018-07-28T05:50:50.301Z,12.70
2018-07-28T05:53:19.065Z,15.13
2018-07-28T05:55:48.037Z,15.10
2018-07-28T05:58:16.957Z,14.70
2018-07-28T06:00:45.746Z,11.87
2018-07-28T06:03:14.537Z,17.00
2018-07-28T06:05:43.319Z,13.50
2018-07-28T06:08:12.246Z,15.83
2018-07-28T06:10:41.065Z,11.47
2018-07-28T06:13:09.489Z,13.23
2018-07-28T06:15:38.181Z,13.43
2018-07-28T06:18:07.006Z,12.13
2018-07-28T06:20:35.729Z,12.33
2018-07-28T06:23:04.522Z,9.80
2018-07-28T06:25:33.294Z,16.00
2018-07-28T06:28:02.146Z,10.67
2018-07-28T06:30:30.951Z,11.27
2018-07-28T06:32:59.714Z,12.43
2018-07-28T06:35:28.532Z,14.20
2018-07-28T06:37:57.539Z,11.93
2018-07-28T06:40:26.405Z,14.63
2018-07-28T06:42:55.282Z,15.57
2018-07-28T06:45:24.206Z,10.20
2018-07-28T06:47:53.029Z,12.97
2018-07-28T06:50:21.781Z,10.73
2018-07-28T06:52:51.168Z,13.43
2018-07-28T06:55:20.354Z,15.87
2018-07-28T06:57:49.165Z,10.60
2018-07-28T07:00:17.970Z,18.13
2018-07-28T07:02:46.733Z,11.87
2018-07-28T07:05:15.534Z,13.80
2018-07-28T07:07:44.301Z,9.03
2018-07-28T07:10:13.102Z,11.13
2018-07-28T07:12:41.861Z,11.33
2018-07-28T07:15:10.638Z,13.13
2018-07-28T07:17:39.479Z,13.30
2018-07-28T07:20:08.365Z,12.60
2018-07-28T07:22:37.205Z,16.37
2018-07-28T07:25:06.081Z,13.47
2018-07-28T07:27:35.069Z,13.67
2018-07-28T07:30:04.657Z,11.27
2018-07-28T07:32:33.531Z,14.37
2018-07-28T07:35:02.129Z,13.00
2018-07-28T07:37:30.814Z,13.17
2018-07-28T07:39:59.669Z,12.67
2018-07-28T07:42:28.465Z,13.57
2018-07-28T07:44:57.253Z,17.93
2018-07-28T07:47:26.066Z,16.27
2018-07-28T07:49:54.615Z,18.60
2018-07-28T07:52:23.120Z,11.67
2018-07-28T07:54:51.845Z,12.27
2018-07-28T07:57:20.600Z,13.50
2018-07-28T07:59:49.161Z,16.40
2018-07-28T08:02:17.873Z,14.20
2018-07-28T08:04:46.789Z,12.83
2018-07-28T08:07:15.533Z,13.23
2018-07-28T08:09:44.397Z,13.10
2018-07-28T08:12:13.224Z,11.73
2018-07-28T08:14:42.015Z,12.07
2018-07-28T08:17:10.896Z,15.40
2018-07-28T08:19:39.451Z,14.27
2018-07-28T08:22:08.142Z,14.07
2018-07-28T08:24:36.976Z,12.07
2018-07-28T08:27:05.898Z,10.10
2018-07-28T08:29:34.774Z,10.30
2018-07-28T08:32:03.557Z,10.87
2018-07-28T08:34:32.305Z,8.20
2018-07-28T08:37:01.067Z,10.50
2018-07-28T08:39:29.932Z,12.67
2018-07-28T08:41:58.733Z,10.80
2018-07-28T08:44:27.469Z,9.63
2018-07-28T08:46:56.250Z,8.73
2018-07-28T08:49:25.100Z,13.20
2018-07-28T08:51:53.750Z,8.40
2018-07-28T08:54:22.373Z,9.90
2018-07-28T08:56:51.042Z,8.27
2018-07-28T08:59:19.845Z,13.27
2018-07-28T09:01:48.706Z,11.60
2018-07-28T09:04:17.486Z,12.60
2018-07-28T09:06:46.041Z,9.53
2018-07-28T09:09:14.771Z,10.70
2018-07-28T09:11:43.521Z,7.23
2018-07-28T09:14:12.306Z,9.67
2018-07-28T09:16:41.085Z,9.97
2018-07-28T09:19:09.893Z,9.93
2018-07-28T09:21:38.737Z,10.50
2018-07-28T09:24:07.281Z,9.47
2018-07-28T09:26:36.037Z,8.30
2018-07-28T09:29:05.086Z,8.53
2018-07-28T09:31:34.002Z,7.33
2018-07-28T09:34:02.761Z,11.43
2018-07-28T09:36:31.336Z,8.30
2018-07-28T09:39:00.202Z,6.47
2018-07-28T09:41:29.048Z,7.83
2018-07-28T09:43:57.645Z,7.50
2018-07-28T09:46:26.558Z,6.10
2018-07-28T09:48:55.679Z,10.33
2018-07-28T09:51:24.614Z,8.17
2018-07-28T09:53:53.506Z,8.53
2018-07-28T09:56:22.410Z,10.23
2018-07-28T09:58:51.160Z,9.87
2018-07-28T10:01:22.081Z,9.23
2018-07-28T10:03:50.901Z,7.93
2018-07-28T10:06:19.577Z,7.57
2018-07-28T10:08:48.356Z,7.27
2018-07-28T10:11:17.182Z,10.47
2018-07-28T10:13:45.910Z,7.87
2018-07-28T10:16:14.701Z,7.17
2018-07-28T10:18:43.429Z,7.80
2018-07-28T10:21:12.269Z,7.77
2018-07-28T10:23:41.053Z,11.87
2018-07-28T10:26:09.913Z,6.97
2018-07-28T10:28:38.661Z,8.67
2018-07-28T10:31:07.238Z,7.97
2018-07-28T10:33:35.753Z,9.40
2018-07-28T10:36:04.747Z,7.57
2018-07-28T10:38:33.626Z,8.23
2018-07-28T10:41:02.389Z,9.47
2018-07-28T10:43:31.189Z,7.47
2018-07-28T10:46:00.305Z,9.87
2018-07-28T10:48:29.380Z,5.77
2018-07-28T10:50:57.993Z,9.23
2018-07-28T10:53:26.818Z,9.83
2018-07-28T10:55:55.595Z,10.30
2018-07-28T10:58:24.586Z,11.10
2018-07-28T11:00:53.345Z,11.27
2018-07-28T11:03:22.148Z,7.83
2018-07-28T11:05:50.967Z,8.53
2018-07-28T11:08:20.078Z,7.60
2018-07-28T11:10:49.038Z,9.13
2018-07-28T11:13:18.042Z,11.97
2018-07-28T11:15:47.225Z,7.17
2018-07-28T11:18:15.932Z,7.50
2018-07-28T11:20:44.949Z,5.83
2018-07-28T11:23:24.052Z,6.23
2018-07-28T11:25:52.794Z,7.33
2018-07-28T11:28:21.624Z,8.57
2018-07-28T11:30:50.619Z,9.73
2018-07-28T11:34:28.505Z,10.07
2018-07-28T11:37:08.841Z,7.27
2018-07-28T11:39:43.071Z,6.33
2018-07-28T11:42:23.281Z,8.27
2018-07-28T11:45:00.135Z,8.77
2018-07-28T11:47:28.917Z,6.67
2018-07-28T11:49:57.678Z,6.67
2018-07-28T11:52:26.494Z,6.77
2018-07-28T11:54:56.364Z,6.67
2018-07-28T11:57:25.150Z,9.20
2018-07-28T11:59:53.941Z,5.90
2018-07-28T12:02:22.681Z,8.40
2018-07-28T12:04:51.473Z,6.03
2018-07-28T12:07:20.281Z,11.93
2018-07-28T12:09:49.125Z,13.53
2018-07-28T12:12:17.882Z,14.77
2018-07-28T12:14:46.789Z,14.10
2018-07-28T12:17:15.376Z,10.43
2018-07-28T12:19:44.343Z,9.83
2018-07-28T12:22:13.125Z,10.17
2018-07-28T12:24:42.097Z,8.60
2018-07-28T12:27:11.233Z,9.77
2018-07-28T12:29:40.284Z,10.97
2018-07-28T12:32:09.312Z,8.57
2018-07-28T12:34:38.234Z,6.50
2018-07-28T12:37:07.624Z,8.93
2018-07-28T12:39:36.466Z,8.97
2018-07-28T12:42:06.509Z,11.60
2018-07-28T12:44:35.321Z,9.70
2018-07-28T12:47:03.977Z,8.23
2018-07-28T12:49:32.773Z,9.10
2018-07-28T12:52:01.767Z,11.90
2018-07-28T12:54:30.573Z,10.43
2018-07-28T12:56:59.371Z,8.03
2018-07-28T12:59:28.550Z,12.53
2018-07-28T13:01:57.477Z,6.30
2018-07-28T13:04:26.449Z,6.00
2018-07-28T13:06:55.233Z,6.80
2018-07-28T13:09:24.145Z,6.53
2018-07-28T13:11:52.717Z,7.70
2018-07-28T13:14:21.553Z,5.47
2018-07-28T13:16:50.370Z,8.30
2018-07-28T13:19:19.268Z,7.70
2018-07-28T13:21:48.050Z,9.20
2018-07-28T13:24:16.874Z,6.93
2018-07-28T13:26:45.481Z,6.80
2018-07-28T13:29:14.370Z,7.57
2018-07-28T13:31:43.197Z,5.63
2018-07-28T13:34:12.033Z,12.67
2018-07-28T13:36:40.609Z,10.13
2018-07-28T13:39:09.407Z,8.30
2018-07-28T13:41:38.359Z,9.60
2018-07-28T13:44:07.218Z,7.33
2018-07-28T13:46:36.016Z,7.53
2018-07-28T13:49:05.342Z,7.00
2018-07-28T13:51:34.181Z,7.83
2018-07-28T13:54:03.400Z,7.07
2018-07-28T13:56:32.401Z,5.27
2018-07-28T13:59:01.366Z,10.67
2018-07-28T14:01:30.318Z,9.20
2018-07-28T14:03:59.100Z,6.67
2018-07-28T14:06:28.025Z,5.93
2018-07-28T14:08:56.905Z,8.23
2018-07-28T14:11:25.758Z,10.03
2018-07-28T14:13:54.673Z,7.27
2018-07-28T14:16:23.569Z,6.87
2018-07-28T14:18:52.377Z,6.10
2018-07-28T14:21:21.188Z,8.47
2018-07-28T14:23:50.326Z,7.93
2018-07-28T14:26:19.341Z,7.00
2018-07-28T14:28:48.127Z,10.37
2018-07-28T14:31:17.001Z,7.70
2018-07-28T14:33:45.791Z,6.80
2018-07-28T14:36:14.972Z,7.63
2018-07-28T14:38:43.729Z,9.10
2018-07-28T14:41:12.622Z,7.63
2018-07-28T14:43:41.493Z,8.73
2018-07-28T14:46:10.403Z,10.43
2018-07-28T14:48:39.621Z,51.80
2018-07-28T14:51:08.561Z,32.73
2018-07-28T14:53:37.493Z,35.77
2018-07-28T14:56:06.798Z,23.57
2018-07-28T14:58:36.413Z,20.77
2018-07-28T15:01:05.291Z,16.40
2018-07-28T15:03:34.371Z,8.50
2018-07-28T15:06:03.327Z,10.47
2018-07-28T15:08:32.141Z,18.60
2018-07-28T15:11:00.972Z,16.67
2018-07-28T15:13:29.685Z,14.07
2018-07-28T15:15:58.533Z,11.70
2018-07-28T15:18:27.305Z,11.27
2018-07-28T15:20:56.030Z,9.73
2018-07-28T15:23:24.873Z,10.30
2018-07-28T15:25:53.716Z,13.93
2018-07-28T15:28:22.470Z,7.73
2018-07-28T15:30:51.025Z,9.10
2018-07-28T15:33:19.741Z,10.63
2018-07-28T15:35:48.292Z,10.30
2018-07-28T15:38:17.017Z,12.10
2018-07-28T15:40:45.805Z,10.13
2018-07-28T15:43:14.593Z,10.57
2018-07-28T15:45:43.450Z,9.93
2018-07-28T15:48:12.214Z,8.67
2018-07-28T15:50:40.956Z,12.53
2018-07-28T15:53:09.721Z,9.10
2018-07-28T15:55:38.691Z,10.53
2018-07-28T15:58:07.405Z,11.77
2018-07-28T16:00:36.297Z,11.67
2018-07-28T16:03:05.129Z,11.43
2018-07-28T16:05:33.886Z,10.67
2018-07-28T16:08:02.649Z,13.37
2018-07-28T16:10:31.402Z,10.27
2018-07-28T16:13:00.150Z,10.70
2018-07-28T16:15:28.805Z,11.20
2018-07-28T16:17:57.565Z,11.57
2018-07-28T16:20:26.401Z,11.27
2018-07-28T16:22:55.298Z,9.67
2018-07-28T16:25:24.060Z,10.70
2018-07-28T16:27:53.092Z,12.27
2018-07-28T16:30:21.903Z,8.57
2018-07-28T16:32:50.485Z,10.63
2018-07-28T16:35:19.154Z,10.53
2018-07-28T16:37:48.400Z,8.97
2018-07-28T16:40:17.243Z,11.13
2018-07-28T16:42:46.042Z,10.20
2018-07-28T16:45:14.890Z,10.07
2018-07-28T16:47:43.950Z,11.30
2018-07-28T16:50:12.961Z,10.43
2018-07-28T16:52:41.853Z,9.80
2018-07-28T16:55:10.625Z,10.17
2018-07-28T16:57:39.493Z,8.43
2018-07-28T17:00:08.737Z,9.20
2018-07-28T17:02:37.706Z,9.17
2018-07-28T17:05:06.804Z,8.07
2018-07-28T17:07:35.593Z,8.33
2018-07-28T17:10:04.818Z,9.00
2018-07-28T17:12:33.605Z,9.43
2018-07-28T17:15:02.485Z,9.47
2018-07-28T17:17:31.310Z,9.43
2018-07-28T17:20:00.106Z,11.63
2018-07-28T17:22:29.087Z,11.13
2018-07-28T17:24:57.994Z,10.80
2018-07-28T17:27:26.877Z,11.67
2018-07-28T17:29:55.645Z,10.40
2018-07-28T17:32:24.629Z,12.80
2018-07-28T17:34:53.360Z,11.63
2018-07-28T17:37:22.410Z,12.43
2018-07-28T17:39:51.218Z,13.20
2018-07-28T17:42:19.780Z,12.47
2018-07-28T17:44:48.524Z,11.53
2018-07-28T17:47:17.364Z,11.73
2018-07-28T17:49:46.844Z,12.83
2018-07-28T17:52:15.611Z,13.53
2018-07-28T17:54:44.493Z,11.13
2018-07-28T17:57:13.142Z,12.70
2018-07-28T17:59:41.837Z,12.17
2018-07-28T18:02:10.380Z,14.33
2018-07-28T18:04:39.217Z,12.90
2018-07-28T18:07:07.953Z,14.77
2018-07-28T18:09:36.929Z,12.17
2018-07-28T18:12:05.933Z,13.97
2018-07-28T18:14:35.127Z,12.53
2018-07-28T18:17:05.851Z,12.97
2018-07-28T18:19:34.799Z,11.47
2018-07-28T18:22:03.534Z,11.73
2018-07-28T18:24:32.251Z,11.90
2018-07-28T18:27:00.955Z,10.80
2018-07-28T18:29:30.033Z,14.63
2018-07-28T18:31:58.799Z,15.33
2018-07-28T18:34:27.541Z,8.93
2018-07-28T18:36:56.334Z,13.40
2018-07-28T18:39:25.294Z,11.23
2018-07-28T18:41:54.098Z,14.23
2018-07-28T18:44:22.912Z,8.93
2018-07-28T18:46:51.701Z,12.23
2018-07-28T18:49:20.465Z,11.20
2018-07-28T18:51:49.305Z,11.23
2018-07-28T18:54:18.172Z,10.17
2018-07-28T18:56:46.945Z,11.63
2018-07-28T18:59:16.110Z,14.83
2018-07-28T19:01:44.846Z,9.17
2018-07-28T19:04:13.617Z,11.03
2018-07-28T19:06:42.420Z,10.37
2018-07-28T19:09:16.662Z,10.20
2018-07-28T19:11:45.247Z,9.30
2018-07-28T19:14:19.212Z,11.23
2018-07-28T19:16:47.881Z,12.30
2018-07-28T19:19:18.100Z,9.73
2018-07-28T19:21:47.141Z,9.90
2018-07-28T19:24:15.995Z,12.53
2018-07-28T19:26:44.933Z,10.93
2018-07-28T19:29:19.101Z,13.53
2018-07-28T19:31:47.970Z,9.97
2018-07-28T19:34:16.929Z,10.27
2018-07-28T19:36:51.069Z,9.43
2018-07-28T19:39:21.348Z,9.80
2018-07-28T19:41:55.653Z,10.97
2018-07-28T19:44:24.554Z,9.90
2018-07-28T19:46:53.506Z,10.00
2018-07-28T19:49:22.336Z,10.93
2018-07-28T19:51:51.122Z,10.43
2018-07-28T19:54:20.057Z,9.90
2018-07-28T19:56:48.841Z,10.30
2018-07-28T19:59:17.617Z,9.90
2018-07-28T20:01:46.360Z,10.30
2018-07-28T20:04:15.290Z,10.73
2018-07-28T20:06:44.064Z,11.43
2018-07-28T20:09:12.884Z,13.07
2018-07-28T20:11:41.476Z,14.80
2018-07-28T20:14:10.230Z,15.30
2018-07-28T20:16:39.106Z,13.77
2018-07-28T20:19:08.170Z,14.50
2018-07-28T20:21:37.026Z,13.17
2018-07-28T20:24:06.189Z,10.67
2018-07-28T20:26:34.993Z,9.23
2018-07-28T20:29:03.708Z,9.17
2018-07-28T20:31:32.296Z,10.20
2018-07-28T20:34:02.958Z,12.63
2018-07-28T20:36:31.909Z,10.03
2018-07-28T20:39:00.597Z,12.17
2018-07-28T20:41:29.470Z,11.77
2018-07-28T20:43:58.285Z,9.40
2018-07-28T20:46:27.058Z,11.13
2018-07-28T20:48:55.849Z,13.57
2018-07-28T20:51:24.618Z,10.50
2018-07-28T20:53:54.642Z,12.13
2018-07-28T20:56:23.613Z,10.97
2018-07-28T20:58:52.366Z,11.40
2018-07-28T21:01:21.295Z,11.97
2018-07-28T21:03:50.249Z,15.07
2018-07-28T21:06:19.093Z,17.77
2018-07-28T21:08:48.077Z,17.40
2018-07-28T21:11:17.029Z,13.67
2018-07-28T21:13:45.584Z,15.40
2018-07-28T21:16:14.074Z,12.80
2018-07-28T21:18:42.573Z,13.03
2018-07-28T21:21:11.261Z,15.60
2018-07-28T21:23:40.054Z,12.97
2018-07-28T21:26:09.073Z,13.53
2018-07-28T21:28:37.887Z,13.47
2018-07-28T21:31:06.797Z,14.90
2018-07-28T21:33:35.775Z,18.00
2018-07-28T21:36:04.958Z,13.23
2018-07-28T21:38:33.955Z,14.37
2018-07-28T21:41:02.779Z,12.07
2018-07-28T21:43:31.581Z,14.67
2018-07-28T21:46:00.450Z,12.50
2018-07-28T21:48:29.338Z,15.57
2018-07-28T21:50:57.924Z,14.23
2018-07-28T21:53:26.456Z,17.80
2018-07-28T21:55:55.316Z,14.53
2018-07-28T21:58:23.879Z,15.93
2018-07-28T22:01:06.305Z,16.50
2018-07-28T22:03:35.569Z,16.90
2018-07-28T22:06:04.361Z,13.77
2018-07-28T22:08:33.277Z,13.10
2018-07-28T22:11:02.034Z,15.40
2018-07-28T22:13:30.925Z,13.03
2018-07-28T22:15:59.733Z,15.07
2018-07-28T22:18:28.621Z,14.17
2018-07-28T22:20:57.554Z,14.93
2018-07-28T22:23:26.645Z,14.63
2018-07-28T22:25:55.401Z,16.23
2018-07-28T22:28:24.229Z,15.10
2018-07-28T22:30:53.018Z,17.77
2018-07-28T22:33:21.924Z,14.30
2018-07-28T22:35:50.949Z,16.30
2018-07-28T22:38:19.945Z,14.57
2018-07-28T22:40:48.741Z,16.60
2018-07-28T22:43:17.542Z,18.23
2018-07-28T22:45:46.314Z,13.00
2018-07-28T22:48:15.121Z,13.93
2018-07-28T22:50:43.909Z,15.97
2018-07-28T22:53:12.697Z,16.10
2018-07-28T22:55:41.581Z,16.67
2018-07-28T22:58:10.405Z,14.50
2018-07-28T23:00:39.331Z,19.63
2018-07-28T23:03:08.126Z,15.27
2018-07-28T23:05:37.046Z,15.13
2018-07-28T23:08:05.945Z,15.17
2018-07-28T23:10:34.754Z,12.40
2018-07-28T23:13:03.833Z,15.23
2018-07-28T23:15:32.488Z,13.83
2018-07-28T23:18:01.210Z,14.70
2018-07-28T23:20:30.015Z,15.20
2018-07-28T23:22:58.957Z,15.63
2018-07-28T23:25:27.941Z,14.63
2018-07-28T23:27:56.771Z,15.83
2018-07-28T23:30:25.620Z,19.23
2018-07-28T23:32:54.581Z,20.87
2018-07-28T23:35:23.437Z,13.93
2018-07-28T23:37:52.210Z,13.80
2018-07-28T23:40:20.985Z,17.70
2018-07-28T23:42:49.883Z,12.43
2018-07-28T23:45:18.713Z,12.43
2018-07-28T23:47:47.336Z,16.20
2018-07-28T23:50:16.041Z,10.47
2018-07-28T23:52:44.913Z,16.03
2018-07-28T23:55:13.649Z,12.33
2018-07-28T23:57:42.435Z,13.20
